createdAt,value
2018-11-26T00:01:46.677Z,10.60
2018-11-26T00:04:21.881Z,9.17
2018-11-26T00:06:51.500Z,9.45
2018-11-26T00:09:26.870Z,11.20
2018-11-26T00:11:56.412Z,10.53
2018-11-26T00:14:31.840Z,9.47
2018-11-26T00:17:01.255Z,7.90
2018-11-26T00:19:36.918Z,7.65
2018-11-26T00:22:06.774Z,7.83
2018-11-26T00:24:41.846Z,9.90
2018-11-26T00:27:11.783Z,11.68
2018-11-26T00:29:46.912Z,8.18
2018-11-26T00:32:16.251Z,9.60
2018-11-26T00:34:52.218Z,7.58
2018-11-26T00:37:21.567Z,10.50
2018-11-26T00:39:56.837Z,9.50
2018-11-26T00:42:26.270Z,7.90
2018-11-26T00:45:01.919Z,9.35
2018-11-26T00:47:31.907Z,9.78
2018-11-26T00:50:07.698Z,10.63
2018-11-26T00:52:39.993Z,9.35
2018-11-26T00:55:12.177Z,9.48
2018-11-26T00:57:42.099Z,6.53
2018-11-26T01:00:19.403Z,10.18
2018-11-26T01:02:48.825Z,8.28
2018-11-26T01:05:31.539Z,12.23
2018-11-26T01:08:00.923Z,9.83
2018-11-26T01:10:30.363Z,8.65
2018-11-26T01:12:59.703Z,10.78
2018-11-26T01:15:32.074Z,10.35
2018-11-26T01:18:02.042Z,8.48
2018-11-26T01:20:37.219Z,9.55
2018-11-26T01:23:07.026Z,9.58
2018-11-26T01:25:41.856Z,7.75
2018-11-26T01:28:11.326Z,8.35
2018-11-26T01:30:46.892Z,8.85
2018-11-26T01:33:16.308Z,6.80
2018-11-26T01:35:52.274Z,7.95
2018-11-26T01:38:21.633Z,8.45
2018-11-26T01:40:56.911Z,8.55
2018-11-26T01:43:26.256Z,8.53
2018-11-26T01:46:01.722Z,9.93
2018-11-26T01:48:31.110Z,9.05
2018-11-26T01:51:06.745Z,8.63
2018-11-26T01:53:35.883Z,8.37
2018-11-26T01:56:11.886Z,8.88
2018-11-26T01:58:41.395Z,7.37
2018-11-26T02:01:17.811Z,8.23
2018-11-26T02:03:47.360Z,7.95
2018-11-26T02:06:23.829Z,7.97
2018-11-26T02:08:53.332Z,8.68
2018-11-26T02:11:29.277Z,8.03
2018-11-26T02:13:59.260Z,8.53
2018-11-26T02:16:32.539Z,8.95
2018-11-26T02:19:01.981Z,7.83
2018-11-26T02:21:36.833Z,10.20
2018-11-26T02:24:06.513Z,6.72
2018-11-26T02:26:42.657Z,8.95
2018-11-26T02:29:12.019Z,9.33
2018-11-26T02:31:47.510Z,6.70
2018-11-26T02:34:16.944Z,7.58
2018-11-26T02:36:52.390Z,7.03
2018-11-26T02:39:22.049Z,6.33
2018-11-26T02:41:57.105Z,5.30
2018-11-26T02:44:28.606Z,6.10
2018-11-26T02:47:01.899Z,8.60
2018-11-26T02:49:32.646Z,6.25
2018-11-26T02:52:06.924Z,7.83
2018-11-26T02:54:36.330Z,6.25
2018-11-26T02:57:11.850Z,7.05
2018-11-26T02:59:41.326Z,5.72
2018-11-26T03:02:17.869Z,6.42
2018-11-26T03:04:47.814Z,6.55
2018-11-26T03:07:22.227Z,9.08
2018-11-26T03:09:51.652Z,5.65
2018-11-26T03:12:26.842Z,8.17
2018-11-26T03:14:56.254Z,6.97
2018-11-26T03:17:31.739Z,6.90
2018-11-26T03:20:01.162Z,7.50
2018-11-26T03:22:38.199Z,7.90
2018-11-26T03:25:09.124Z,7.37
2018-11-26T03:31:14.664Z,6.65
2018-11-26T03:33:48.226Z,7.33
2018-11-26T03:36:18.183Z,7.33
2018-11-26T03:38:53.839Z,7.10
2018-11-26T03:41:23.799Z,7.37
2018-11-26T03:43:59.370Z,7.47
2018-11-26T03:46:28.882Z,6.07
2018-11-26T03:49:03.189Z,7.12
2018-11-26T03:51:32.553Z,5.83
2018-11-26T03:54:10.805Z,5.65
2018-11-26T03:56:40.496Z,5.37
2018-11-26T03:59:13.133Z,6.27
2018-11-26T04:01:43.603Z,6.75
2018-11-26T04:04:17.953Z,5.55
2018-11-26T04:06:47.845Z,7.17
2018-11-26T04:09:23.478Z,6.92
2018-11-26T04:11:53.451Z,8.05
2018-11-26T04:14:28.870Z,5.90
2018-11-26T04:16:58.630Z,5.67
2018-11-26T04:19:32.984Z,5.60
2018-11-26T04:22:02.332Z,6.97
2018-11-26T04:24:38.031Z,6.12
2018-11-26T04:27:07.734Z,5.33
2018-11-26T04:29:42.785Z,8.65
2018-11-26T04:32:12.782Z,6.25
2018-11-26T04:34:48.623Z,6.12
2018-11-26T04:37:17.993Z,6.25
2018-11-26T04:39:53.250Z,6.45
2018-11-26T04:42:22.630Z,7.50
2018-11-26T04:44:57.921Z,5.53
2018-11-26T04:47:27.389Z,5.50
2018-11-26T04:50:03.064Z,4.93
2018-11-26T04:52:32.578Z,5.20
2018-11-26T04:55:10.207Z,5.60
2018-11-26T04:57:42.769Z,5.40
2018-11-26T05:00:14.734Z,5.08
2018-11-26T05:02:44.717Z,5.40
2018-11-26T05:05:17.937Z,9.80
2018-11-26T05:07:47.790Z,12.82
2018-11-26T05:10:23.138Z,14.33
2018-11-26T05:12:52.473Z,13.75
2018-11-26T05:15:28.183Z,14.10
2018-11-26T05:17:58.178Z,15.28
2018-11-26T05:20:32.862Z,14.93
2018-11-26T05:23:02.812Z,18.52
2018-11-26T05:25:39.412Z,16.65
2018-11-26T05:28:09.571Z,22.37
2018-11-26T05:30:43.286Z,17.67
2018-11-26T05:33:13.221Z,16.48
2018-11-26T05:35:48.113Z,21.75
2018-11-26T05:38:17.556Z,14.53
2018-11-26T05:40:54.323Z,16.80
2018-11-26T05:43:24.861Z,13.65
2018-11-26T05:45:58.097Z,17.85
2018-11-26T05:48:27.475Z,15.85
2018-11-26T05:51:03.844Z,19.37
2018-11-26T05:53:33.758Z,16.10
2018-11-26T05:56:07.926Z,12.37
2018-11-26T05:58:37.754Z,16.93
2018-11-26T06:01:14.505Z,13.58
2018-11-26T06:03:44.518Z,14.80
2018-11-26T06:06:18.073Z,14.43
2018-11-26T06:08:47.454Z,11.43
2018-11-26T06:11:22.854Z,18.05
2018-11-26T06:13:52.380Z,12.35
2018-11-26T06:16:30.218Z,12.82
2018-11-26T06:18:59.585Z,16.62
2018-11-26T06:21:32.750Z,15.20
2018-11-26T06:24:02.221Z,13.03
2018-11-26T06:26:37.865Z,11.93
2018-11-26T06:29:07.322Z,16.23
2018-11-26T06:31:42.874Z,15.15
2018-11-26T06:34:12.293Z,10.75
2018-11-26T06:36:47.851Z,13.43
2018-11-26T06:39:17.858Z,11.88
2018-11-26T06:41:54.006Z,11.80
2018-11-26T06:44:23.345Z,11.50
2018-11-26T06:46:57.795Z,10.18
2018-11-26T06:49:27.287Z,10.65
2018-11-26T06:52:04.257Z,8.58
2018-11-26T06:54:34.211Z,10.72
2018-11-26T06:59:39.348Z,10.00
2018-11-26T07:02:08.777Z,10.88
2018-11-26T07:04:48.053Z,8.83
2018-11-26T07:07:17.948Z,8.93
2018-11-26T07:09:47.398Z,9.30
2018-11-26T07:12:17.326Z,9.40
2018-11-26T07:14:47.221Z,12.53
2018-11-26T07:17:16.675Z,10.48
2018-11-26T07:19:46.622Z,11.35
2018-11-26T07:22:16.002Z,9.95
2018-11-26T07:24:45.895Z,11.55
2018-11-26T07:27:15.361Z,11.85
2018-11-26T07:29:44.762Z,9.13
2018-11-26T07:32:14.199Z,9.45
2018-11-26T07:34:43.576Z,10.58
2018-11-26T07:37:15.048Z,11.48
2018-11-26T07:39:46.691Z,11.43
2018-11-26T07:42:16.107Z,8.55
2018-11-26T07:44:55.143Z,10.58
2018-11-26T07:47:24.358Z,8.40
2018-11-26T07:49:54.327Z,8.23
2018-11-26T07:52:23.767Z,8.93
2018-11-26T07:54:53.806Z,10.68
2018-11-26T07:57:23.906Z,8.90
2018-11-26T07:59:53.946Z,7.83
2018-11-26T08:02:23.321Z,9.30
2018-11-26T08:04:52.726Z,8.93
2018-11-26T08:13:31.467Z,10.15
2018-11-26T08:16:00.813Z,9.97
2018-11-26T08:18:31.924Z,8.03
2018-11-26T08:21:01.316Z,9.63
2018-11-26T08:23:31.304Z,9.60
2018-11-26T08:26:01.160Z,8.90
2018-11-26T08:28:31.854Z,7.47
2018-11-26T08:31:01.608Z,8.23
2018-11-26T08:33:31.373Z,8.58
2018-11-26T08:38:45.960Z,7.72
2018-11-26T08:41:16.615Z,8.93
2018-11-26T08:43:51.659Z,8.78
2018-11-26T08:46:31.815Z,7.77
2018-11-26T08:49:02.433Z,8.25
2018-11-26T08:51:32.238Z,8.70
2018-11-26T08:54:02.029Z,10.72
2018-11-26T08:56:32.102Z,8.20
2018-11-26T08:59:01.903Z,9.87
2018-11-26T09:01:33.403Z,9.47
2018-11-26T09:09:32.910Z,8.90
2018-11-26T09:12:00.538Z,7.35
2018-11-26T09:14:31.707Z,8.05
2018-11-26T09:17:01.420Z,7.60
2018-11-26T09:19:31.064Z,8.65
2018-11-26T09:22:00.747Z,7.55
2018-11-26T09:24:30.447Z,8.35
2018-11-26T09:27:00.094Z,7.97
2018-11-26T09:29:30.323Z,9.40
2018-11-26T09:32:00.703Z,8.80
2018-11-26T09:34:40.773Z,8.58
2018-11-26T09:37:14.134Z,7.60
2018-11-26T09:39:43.892Z,8.03
2018-11-26T09:42:23.859Z,6.42
2018-11-26T09:44:53.500Z,9.40
2018-11-26T09:47:26.385Z,8.63
2018-11-26T09:49:56.279Z,7.13
2018-11-26T09:52:26.050Z,8.63
2018-11-26T09:54:56.698Z,8.53
2018-11-26T09:57:26.901Z,8.40
2018-11-26T09:59:58.100Z,8.60
2018-11-26T10:02:28.764Z,7.12
2018-11-26T10:05:11.245Z,8.15
2018-11-26T10:07:41.039Z,8.20
2018-11-26T10:13:13.778Z,8.68
2018-11-26T10:15:43.136Z,8.25
2018-11-26T10:18:13.484Z,8.65
2018-11-26T10:20:42.881Z,9.10
2018-11-26T10:23:12.256Z,9.05
2018-11-26T10:25:41.629Z,9.00
2018-11-26T10:28:11.017Z,6.70
2018-11-26T10:30:40.345Z,7.45
2018-11-26T10:33:14.649Z,8.20
2018-11-26T10:35:39.267Z,6.92
2018-11-26T10:38:08.692Z,7.67
2018-11-26T10:40:38.086Z,7.70
2018-11-26T10:43:11.577Z,7.33
2018-11-26T10:45:37.693Z,7.85
2018-11-26T10:48:07.838Z,6.37
2018-11-26T10:50:37.222Z,8.60
2018-11-26T10:53:06.801Z,6.45
2018-11-26T10:55:37.366Z,8.10
2018-11-26T10:58:07.081Z,8.70
2018-11-26T11:01:40.669Z,7.95
2018-11-26T11:04:10.214Z,8.60
2018-11-26T11:06:55.831Z,8.93
2018-11-26T11:09:22.074Z,6.53
2018-11-26T11:11:51.465Z,7.92
2018-11-26T11:14:20.854Z,8.93
2018-11-26T11:16:50.249Z,7.17
2018-11-26T11:19:19.643Z,8.83
2018-11-26T11:21:49.103Z,8.23
2018-11-26T11:24:19.050Z,8.70
2018-11-26T11:26:48.389Z,8.98
2018-11-26T11:29:18.307Z,6.83
2018-11-26T11:31:48.339Z,7.37
2018-11-26T11:34:17.511Z,8.70
2018-11-26T11:36:46.895Z,7.50
2018-11-26T11:39:16.317Z,8.93
2018-11-26T11:41:45.699Z,7.55
2018-11-26T11:44:15.123Z,8.85
2018-11-26T11:46:44.226Z,6.53
2018-11-26T11:49:14.120Z,8.08
2018-11-26T11:51:43.637Z,7.92
2018-11-26T11:56:53.874Z,6.22
2018-11-26T11:59:23.220Z,7.05
2018-11-26T12:01:54.547Z,6.93
2018-11-26T12:04:24.504Z,7.03
2018-11-26T12:06:54.029Z,5.90
2018-11-26T12:09:24.013Z,9.43
2018-11-26T12:11:53.344Z,8.28
2018-11-26T12:14:22.747Z,8.00
2018-11-26T12:16:53.016Z,7.70
2018-11-26T12:19:22.440Z,7.53
2018-11-26T12:21:51.874Z,8.13
2018-11-26T12:24:21.233Z,7.50
2018-11-26T12:26:50.595Z,6.37
2018-11-26T12:29:20.040Z,6.33
2018-11-26T12:31:50.952Z,6.67
2018-11-26T12:34:20.916Z,9.25
2018-11-26T12:40:20.176Z,7.75
2018-11-26T12:42:59.510Z,8.10
2018-11-26T12:45:31.196Z,7.70
2018-11-26T12:48:00.838Z,7.53
2018-11-26T12:53:40.338Z,7.57
2018-11-26T12:56:10.266Z,8.20
2018-11-26T12:58:52.531Z,7.25
2018-11-26T13:01:21.899Z,8.57
2018-11-26T13:03:51.910Z,8.40
2018-11-26T13:06:21.892Z,7.95
2018-11-26T13:08:51.335Z,9.03
2018-11-26T13:11:21.791Z,7.08
2018-11-26T13:13:51.147Z,6.83
2018-11-26T13:19:01.256Z,6.92
2018-11-26T13:21:30.642Z,6.47
2018-11-26T13:24:02.360Z,7.97
2018-11-26T13:26:32.258Z,7.08
2018-11-26T13:29:01.645Z,8.67
2018-11-26T13:31:35.393Z,6.77
2018-11-26T13:34:05.339Z,7.87
2018-11-26T13:36:35.216Z,8.18
2018-11-26T13:39:07.244Z,9.60
2018-11-26T13:41:36.734Z,8.27
2018-11-26T13:44:06.903Z,8.98
2018-11-26T13:46:36.532Z,8.28
2018-11-26T13:49:06.271Z,7.08
2018-11-26T13:51:36.186Z,8.80
2018-11-26T13:54:06.263Z,7.95
2018-11-26T13:56:35.703Z,8.40
2018-11-26T13:59:05.147Z,9.78
2018-11-26T14:13:48.099Z,8.20
2018-11-26T14:16:17.589Z,7.47
2018-11-26T14:18:46.961Z,9.17
2018-11-26T14:21:16.365Z,7.80
2018-11-26T14:23:46.263Z,8.50
2018-11-26T14:26:15.664Z,10.48
2018-11-26T14:28:45.041Z,7.20
2018-11-26T14:31:14.524Z,9.60
2018-11-26T14:33:43.928Z,8.13
2018-11-26T14:36:13.307Z,9.28
2018-11-26T14:38:42.735Z,8.05
2018-11-26T14:41:12.074Z,8.50
2018-11-26T14:43:41.653Z,8.93
2018-11-26T14:46:11.204Z,8.58
2018-11-26T14:48:40.693Z,8.33
2018-11-26T14:51:10.119Z,8.95
2018-11-26T14:53:39.561Z,9.03
2018-11-26T14:56:09.312Z,8.30
2018-11-26T14:58:46.182Z,8.93
2018-11-26T15:01:16.318Z,7.70
2018-11-26T15:04:02.019Z,7.90
2018-11-26T15:06:33.231Z,8.58
2018-11-26T15:09:08.659Z,10.63
2018-11-26T15:14:38.854Z,7.37
2018-11-26T15:17:19.327Z,7.90
2018-11-26T15:19:48.863Z,9.10
2018-11-26T15:28:28.184Z,7.67
2018-11-26T15:30:57.675Z,6.07
2018-11-26T15:33:36.927Z,6.33
2018-11-26T15:36:06.431Z,6.67
2018-11-26T15:38:36.379Z,8.30
2018-11-26T15:41:06.365Z,6.03
2018-11-26T15:43:35.844Z,7.60
2018-11-26T15:46:07.930Z,7.97
2018-11-26T15:48:37.652Z,6.00
2018-11-26T15:51:07.251Z,7.87
2018-11-26T15:53:49.713Z,6.35
2018-11-26T15:56:19.121Z,6.03
2018-11-26T15:58:51.400Z,5.17
2018-11-26T16:01:20.762Z,4.97
2018-11-26T16:03:50.214Z,4.57
2018-11-26T16:06:20.325Z,5.00
2018-11-26T16:08:49.752Z,5.33
2018-11-26T16:11:19.170Z,4.70
2018-11-26T16:13:48.687Z,5.60
2018-11-26T16:22:26.361Z,8.60
2018-11-26T16:25:01.062Z,6.60
2018-11-26T16:27:30.186Z,9.43
2018-11-26T16:29:59.596Z,5.13
2018-11-26T16:32:29.076Z,6.92
2018-11-26T16:34:58.517Z,6.15
2018-11-26T16:37:27.925Z,6.03
2018-11-26T16:39:58.702Z,4.95
2018-11-26T16:42:28.105Z,4.85
2018-11-26T16:44:57.512Z,5.30
2018-11-26T16:47:27.024Z,3.40
2018-11-26T16:49:56.386Z,4.45
2018-11-26T16:52:25.819Z,4.45
2018-11-26T16:54:55.336Z,4.05
2018-11-26T16:57:24.787Z,4.20
2018-11-26T16:59:54.182Z,3.15
2018-11-26T17:02:24.487Z,3.02
2018-11-26T17:04:54.179Z,6.08
2018-11-26T17:07:24.099Z,4.65
2018-11-26T17:09:53.560Z,17.80
2018-11-26T17:12:22.979Z,21.30
2018-11-26T17:18:07.651Z,10.13
2018-11-26T17:20:45.512Z,11.93
2018-11-26T17:23:15.516Z,10.53
2018-11-26T17:25:57.000Z,9.18
2018-11-26T17:31:33.971Z,12.33
2018-11-26T17:34:13.169Z,11.60
2018-11-26T17:36:43.128Z,10.60
2018-11-26T17:39:12.729Z,9.70
2018-11-26T17:41:42.880Z,8.40
2018-11-26T17:44:12.983Z,10.98
2018-11-26T17:46:42.419Z,14.13
2018-11-26T17:49:11.905Z,15.23
2018-11-26T17:51:43.271Z,10.93
2018-11-26T17:54:30.454Z,8.85
2018-11-26T17:56:59.966Z,9.90
2018-11-26T17:59:37.964Z,9.83
2018-11-26T18:02:07.791Z,9.98
2018-11-26T18:04:37.289Z,10.58
2018-11-26T18:07:15.092Z,7.78
2018-11-26T18:09:44.564Z,9.73
2018-11-26T18:12:14.599Z,7.65
2018-11-26T18:14:44.064Z,8.28
2018-11-26T18:17:13.447Z,8.65
2018-11-26T18:19:46.902Z,7.70
2018-11-26T18:22:16.563Z,8.00
2018-11-26T18:24:46.016Z,9.00
2018-11-26T18:27:25.614Z,10.38
2018-11-26T18:29:55.125Z,12.63
2018-11-26T18:32:27.424Z,9.35
2018-11-26T18:34:57.371Z,11.35
2018-11-26T18:37:26.772Z,10.82
2018-11-26T18:39:56.958Z,9.83
2018-11-26T18:42:26.906Z,8.95
2018-11-26T18:44:56.470Z,10.05
2018-11-26T18:47:26.068Z,8.50
2018-11-26T18:49:56.086Z,9.53
2018-11-26T18:52:26.137Z,8.50
2018-11-26T18:54:55.622Z,11.12
2018-11-26T18:57:25.082Z,9.53
2018-11-26T18:59:54.508Z,10.93
2018-11-26T19:02:24.500Z,10.08
2018-11-26T19:04:53.950Z,8.15
2018-11-26T19:07:32.467Z,9.63
2018-11-26T19:10:01.970Z,8.33
2018-11-26T19:12:35.499Z,10.35
2018-11-26T19:15:08.858Z,8.80
2018-11-26T19:17:38.290Z,9.30
2018-11-26T19:20:11.208Z,7.93
2018-11-26T19:22:52.539Z,8.88
2018-11-26T19:25:22.563Z,6.70
2018-11-26T19:27:52.555Z,7.53
2018-11-26T19:30:23.264Z,7.13
2018-11-26T19:32:51.479Z,7.22
2018-11-26T19:35:20.870Z,7.12
2018-11-26T19:37:50.398Z,6.55
2018-11-26T19:40:20.183Z,4.60
2018-11-26T19:42:49.670Z,8.30
2018-11-26T19:45:20.534Z,5.62
2018-11-26T19:50:55.143Z,6.95
2018-11-26T19:53:24.571Z,4.13
2018-11-26T19:55:54.575Z,5.10
2018-11-26T19:58:24.136Z,3.83
2018-11-26T20:01:08.908Z,5.30
2018-11-26T20:03:41.362Z,3.95
2018-11-26T20:06:15.501Z,4.55
2018-11-26T20:08:46.607Z,4.42
2018-11-26T20:11:22.803Z,5.47
2018-11-26T20:13:52.797Z,6.00
2018-11-26T20:16:25.840Z,5.27
2018-11-26T20:18:55.492Z,5.93
2018-11-26T20:21:24.916Z,5.20
2018-11-26T20:23:59.391Z,6.53
2018-11-26T20:26:28.869Z,4.97
2018-11-26T20:29:06.837Z,4.05
2018-11-26T20:31:36.346Z,5.85
2018-11-26T20:34:06.096Z,4.85
2018-11-26T20:36:35.714Z,4.13
2018-11-26T20:39:08.429Z,4.03
2018-11-26T20:41:38.914Z,5.80
2018-11-26T20:44:09.686Z,6.12
2018-11-26T20:46:50.869Z,6.37
2018-11-26T20:49:20.261Z,4.60
2018-11-26T20:51:49.655Z,4.15
2018-11-26T20:54:19.600Z,4.47
2018-11-26T20:56:49.011Z,4.83
2018-11-26T20:59:19.061Z,3.65
2018-11-26T21:02:01.410Z,6.97
2018-11-26T21:04:35.740Z,6.90
2018-11-26T21:07:05.438Z,8.50
2018-11-26T21:09:34.875Z,7.70
2018-11-26T21:12:04.914Z,6.12
2018-11-26T21:17:22.800Z,9.70
2018-11-26T21:19:57.153Z,10.45
2018-11-26T21:22:44.597Z,14.35
2018-11-26T21:25:15.708Z,10.70
2018-11-26T21:27:45.201Z,10.30
2018-11-26T21:30:16.957Z,12.37
2018-11-26T21:32:47.689Z,9.05
2018-11-26T21:35:20.712Z,8.50
2018-11-26T21:37:52.124Z,8.63
2018-11-26T21:40:31.352Z,7.92
2018-11-26T21:43:01.025Z,7.47
2018-11-26T21:46:05.347Z,7.53
2018-11-26T21:51:50.424Z,9.33
2018-11-26T21:54:29.250Z,7.45
2018-11-26T21:56:59.596Z,9.13
2018-11-26T21:59:29.417Z,9.33
2018-11-26T22:01:59.544Z,9.00
2018-11-26T22:04:28.970Z,13.75
2018-11-26T22:06:58.466Z,15.80
2018-11-26T22:09:28.097Z,11.28
2018-11-26T22:11:57.763Z,10.32
2018-11-26T22:14:31.033Z,9.20
2018-11-26T22:17:00.447Z,9.68
2018-11-26T22:19:40.081Z,11.18
2018-11-26T22:22:10.003Z,8.90
2018-11-26T22:24:39.463Z,9.95
2018-11-26T22:27:08.900Z,10.30
2018-11-26T22:29:38.301Z,7.58
2018-11-26T22:32:08.328Z,9.43
2018-11-26T22:34:40.979Z,7.30
2018-11-26T22:37:10.856Z,7.92
2018-11-26T22:39:42.401Z,7.05
2018-11-26T22:42:12.333Z,6.87
2018-11-26T22:44:51.916Z,7.60
2018-11-26T22:47:21.315Z,7.22
2018-11-26T22:49:51.296Z,7.45
2018-11-26T22:52:21.492Z,7.45
2018-11-26T22:54:51.095Z,8.85
2018-11-26T22:57:20.600Z,7.83
2018-11-26T22:59:50.064Z,7.50
2018-11-26T23:02:20.023Z,8.23
2018-11-26T23:04:49.439Z,8.00
2018-11-26T23:07:18.864Z,6.80
2018-11-26T23:09:48.788Z,6.22
2018-11-26T23:12:18.752Z,7.75
2018-11-26T23:14:48.783Z,6.22
2018-11-26T23:17:18.264Z,7.22
2018-11-26T23:19:47.760Z,6.92
2018-11-26T23:22:17.127Z,5.12
2018-11-26T23:24:46.584Z,6.45
2018-11-26T23:27:26.620Z,5.58
2018-11-26T23:29:56.597Z,6.05
2018-11-26T23:32:29.690Z,5.42
2018-11-26T23:34:59.345Z,4.92
2018-11-26T23:37:28.761Z,5.90
2018-11-26T23:39:58.141Z,5.35
2018-11-26T23:42:28.097Z,6.35
2018-11-26T23:44:57.493Z,6.47
2018-11-26T23:47:26.979Z,8.03
2018-11-26T23:49:56.349Z,4.47
2018-11-26T23:52:26.311Z,5.33
2018-11-26T23:54:56.284Z,5.15
2018-11-26T23:57:25.610Z,4.12
2018-11-26T23:59:55.096Z,5.72
